Time;durP1;ratioP1;P1;durP2;ratioP2;P2;SDS_P1;SDS_P2;PMS_P1;PMS_P2;Temp;Humidity;BMP_temperature;BMP_pressure;BME280_temperature;BME280_humidity;BME280_pressure;Samples;Min_cycle;Max_cycle;Signal;HPM_P1;HPM_P2
2023/05/20 00:02:11;;;;;;;2.23;1.80;;;21.40;63.70;;;;;;5049845;28;20925;-43
2023/05/20 00:04:43;;;;;;;1.77;1.60;;;21.40;63.80;;;;;;5050687;28;20199;-43
2023/05/20 00:07:15;;;;;;;2.50;1.60;;;21.30;63.60;;;;;;5050781;28;20206;-44
2023/05/20 00:09:46;;;;;;;1.73;1.43;;;21.30;63.60;;;;;;5067585;28;20201;-43
2023/05/20 00:12:17;;;;;;;2.10;1.50;;;21.30;63.60;;;;;;5065167;28;20383;-43
2023/05/20 00:14:51;;;;;;;1.70;1.33;;;21.30;63.90;;;;;;5054262;28;20201;-43
2023/05/20 00:17:26;;;;;;;1.70;1.43;;;21.30;63.50;;;;;;5059574;28;20267;-43
2023/05/20 00:19:58;;;;;;;1.70;1.60;;;21.30;63.60;;;;;;5070869;28;20212;-43
2023/05/20 00:22:29;;;;;;;1.70;1.30;;;21.30;63.80;;;;;;5067184;28;20606;-43
2023/05/20 00:25:06;;;;;;;1.60;1.30;;;21.30;63.70;;;;;;5057322;28;20263;-43
2023/05/20 00:27:37;;;;;;;2.83;1.60;;;21.20;63.60;;;;;;5056288;28;20209;-43
2023/05/20 00:30:09;;;;;;;2.30;1.50;;;21.20;63.60;;;;;;5057430;28;20253;-43
2023/05/20 00:32:43;;;;;;;2.50;1.40;;;21.20;63.50;;;;;;5070207;28;20193;-43
2023/05/20 00:35:13;;;;;;;2.17;1.67;;;21.20;63.70;;;;;;5065055;28;20198;-43
2023/05/20 00:37:43;;;;;;;2.43;1.70;;;21.20;63.70;;;;;;5068663;28;20205;-43
2023/05/20 00:40:13;;;;;;;3.37;1.37;;;21.20;63.60;;;;;;5041088;28;20510;-43
2023/05/20 00:42:45;;;;;;;1.87;1.40;;;21.20;63.70;;;;;;5073422;28;20206;-44
2023/05/20 00:45:17;;;;;;;1.63;1.37;;;21.20;63.70;;;;;;5062583;28;20199;-44
2023/05/20 00:47:49;;;;;;;1.93;1.67;;;21.10;63.70;;;;;;5053037;28;20263;-44
2023/05/20 00:50:20;;;;;;;1.63;1.53;;;21.10;63.70;;;;;;5056955;28;20225;-43
2023/05/20 00:52:50;;;;;;;1.30;1.20;;;21.10;63.60;;;;;;5065730;28;20198;-43
2023/05/20 00:55:25;;;;;;;1.40;1.27;;;21.10;63.60;;;;;;5069776;28;20194;-43
2023/05/20 00:57:56;;;;;;;2.37;1.40;;;21.10;63.50;;;;;;5068327;28;20214;-43
2023/05/20 01:00:31;;;;;;;1.50;1.27;;;21.10;63.40;;;;;;5063987;28;20229;-43
2023/05/20 01:03:00;;;;;;;1.50;1.40;;;21.10;63.50;;;;;;5054544;28;20210;-43
2023/05/20 01:05:35;;;;;;;2.20;1.50;;;21.00;63.40;;;;;;5053450;28;20187;-43
2023/05/20 01:08:11;;;;;;;2.93;1.30;;;21.10;63.40;;;;;;5056627;28;20290;-43
2023/05/20 01:10:43;;;;;;;1.53;1.43;;;21.10;63.40;;;;;;5047269;28;20224;-43
2023/05/20 01:13:20;;;;;;;1.40;1.10;;;21.00;63.30;;;;;;5053415;28;20215;-43
2023/05/20 01:15:55;;;;;;;1.73;1.30;;;21.00;63.30;;;;;;5060702;28;20197;-43
2023/05/20 01:18:30;;;;;;;1.30;1.20;;;21.00;63.30;;;;;;5054254;28;20198;-43
2023/05/20 01:21:02;;;;;;;1.40;1.30;;;21.00;63.30;;;;;;5061210;28;20204;-43
2023/05/20 01:23:43;;;;;;;1.43;1.33;;;21.00;63.40;;;;;;5066517;28;20228;-43
2023/05/20 01:26:13;;;;;;;1.50;1.23;;;21.00;63.30;;;;;;5062433;28;20205;-43
2023/05/20 01:28:48;;;;;;;1.53;1.30;;;21.00;63.20;;;;;;5058142;28;20200;-43
2023/05/20 01:31:25;;;;;;;1.57;1.47;;;21.00;63.20;;;;;;5054447;28;20286;-43
2023/05/20 01:34:01;;;;;;;1.47;1.20;;;21.00;63.20;;;;;;5069160;28;20208;-43
2023/05/20 01:36:44;;;;;;;2.70;1.40;;;21.00;63.20;;;;;;5069537;28;20206;-43
2023/05/20 01:39:17;;;;;;;1.63;1.40;;;21.00;63.20;;;;;;5055966;28;20210;-43
2023/05/20 01:41:53;;;;;;;1.87;1.23;;;20.90;63.10;;;;;;5055246;28;20221;-43
2023/05/20 01:44:25;;;;;;;1.50;1.20;;;20.90;63.10;;;;;;5058869;28;20220;-43
2023/05/20 01:46:55;;;;;;;2.23;1.23;;;20.90;63.00;;;;;;5041949;28;20634;-43
2023/05/20 01:49:26;;;;;;;1.73;1.30;;;20.90;63.00;;;;;;5056298;28;20946;-43
2023/05/20 01:51:56;;;;;;;2.10;1.43;;;20.90;63.20;;;;;;5051035;28;20202;-43
2023/05/20 01:54:27;;;;;;;1.90;1.30;;;20.90;63.20;;;;;;5030906;28;20197;-44
2023/05/20 01:56:58;;;;;;;2.40;1.30;;;20.90;63.10;;;;;;5032113;28;20191;-43
2023/05/20 01:59:31;;;;;;;2.00;1.30;;;20.90;63.00;;;;;;5030602;28;20210;-43
2023/05/20 02:01:59;;;;;;;1.40;1.20;;;20.80;63.00;;;;;;5065689;28;20534;-44
2023/05/20 02:04:29;;;;;;;1.40;1.20;;;20.80;63.10;;;;;;5069278;28;20205;-43
2023/05/20 02:07:02;;;;;;;1.40;1.30;;;20.90;63.00;;;;;;5061051;28;20220;-43
2023/05/20 02:09:32;;;;;;;1.10;1.00;;;20.80;62.90;;;;;;5056769;28;20268;-43
2023/05/20 02:12:03;;;;;;;2.37;1.33;;;20.80;63.00;;;;;;5061934;28;20212;-43
2023/05/20 02:14:33;;;;;;;2.70;1.10;;;20.80;62.80;;;;;;5068719;28;20198;-44
2023/05/20 02:17:03;;;;;;;1.50;1.30;;;20.80;62.80;;;;;;5056631;28;20268;-44
2023/05/20 02:19:31;;;;;;;1.97;1.10;;;20.80;63.00;;;;;;5040996;28;20209;-43
2023/05/20 02:22:02;;;;;;;2.33;1.10;;;20.80;62.80;;;;;;5066417;28;20249;-43
2023/05/20 02:24:34;;;;;;;1.20;1.10;;;20.70;62.90;;;;;;5068975;28;20182;-44
2023/05/20 02:27:05;;;;;;;2.13;1.40;;;20.80;62.80;;;;;;5061474;28;20187;-43
2023/05/20 02:29:36;;;;;;;1.40;1.30;;;20.70;62.70;;;;;;5046424;28;20283;-43
2023/05/20 02:32:07;;;;;;;1.20;1.10;;;20.70;62.80;;;;;;5062365;28;20557;-44
2023/05/20 02:34:44;;;;;;;1.63;1.33;;;20.70;62.80;;;;;;5052873;28;20214;-43
2023/05/20 02:37:18;;;;;;;1.77;1.23;;;20.70;62.80;;;;;;5062471;28;20208;-43
2023/05/20 02:39:50;;;;;;;1.20;1.10;;;20.80;62.80;;;;;;5054683;28;20786;-44
2023/05/20 02:42:19;;;;;;;1.20;1.10;;;20.70;62.50;;;;;;5056398;28;20233;-43
2023/05/20 02:44:52;;;;;;;1.27;1.17;;;20.70;62.90;;;;;;5070932;28;20196;-44
2023/05/20 02:47:26;;;;;;;1.40;1.20;;;20.70;62.90;;;;;;5066981;28;20398;-44
2023/05/20 02:49:56;;;;;;;1.40;1.10;;;20.70;62.80;;;;;;5051591;28;20215;-44
2023/05/20 02:52:25;;;;;;;2.73;1.27;;;20.70;62.70;;;;;;5066722;28;20265;-44
2023/05/20 02:55:00;;;;;;;1.73;1.60;;;20.70;62.80;;;;;;5075852;28;20230;-43
2023/05/20 02:57:28;;;;;;;2.43;1.40;;;20.60;63.00;;;;;;5043881;28;20619;-44
2023/05/20 03:00:10;;;;;;;2.03;1.30;;;20.60;63.00;;;;;;5060331;28;20247;-44
2023/05/20 03:02:42;;;;;;;1.87;1.63;;;20.60;62.80;;;;;;5068376;28;20241;-44
2023/05/20 03:05:13;;;;;;;1.93;1.30;;;20.60;63.10;;;;;;5077315;28;20208;-44
2023/05/20 03:07:47;;;;;;;1.97;1.50;;;20.60;62.80;;;;;;5080303;28;20274;-44
2023/05/20 03:10:17;;;;;;;3.50;1.70;;;20.60;62.80;;;;;;5078855;28;20292;-43
2023/05/20 03:12:49;;;;;;;3.00;1.27;;;20.60;62.90;;;;;;5078861;28;20230;-43
2023/05/20 03:15:18;;;;;;;1.73;1.33;;;20.60;62.80;;;;;;5072839;28;20201;-43
2023/05/20 03:17:46;;;;;;;1.43;1.07;;;20.50;62.90;;;;;;5070518;28;20292;-43
2023/05/20 03:20:19;;;;;;;1.80;1.40;;;20.50;62.80;;;;;;5074276;28;20217;-44
2023/05/20 03:23:02;;;;;;;1.13;1.03;;;20.50;62.80;;;;;;5068218;28;20311;-43
2023/05/20 03:25:31;;;;;;;2.60;1.43;;;20.50;62.70;;;;;;5055684;28;20201;-43
2023/05/20 03:28:05;;;;;;;1.63;1.40;;;20.60;62.80;;;;;;5075213;28;20189;-43
2023/05/20 03:30:34;;;;;;;1.70;1.27;;;20.50;62.80;;;;;;5078397;28;20230;-43
2023/05/20 03:33:04;;;;;;;1.97;1.50;;;20.50;62.80;;;;;;5076730;28;20229;-43
2023/05/20 03:35:34;;;;;;;1.30;1.20;;;20.50;62.80;;;;;;5066133;28;20206;-43
2023/05/20 03:38:04;;;;;;;1.83;1.40;;;20.50;62.80;;;;;;5066325;28;20599;-43
2023/05/20 03:40:35;;;;;;;1.30;1.10;;;20.50;62.80;;;;;;5063779;28;20225;-43
2023/05/20 03:43:05;;;;;;;1.30;1.20;;;20.50;62.90;;;;;;5067779;28;20214;-44
2023/05/20 03:45:36;;;;;;;1.73;1.17;;;20.40;62.70;;;;;;5069122;28;20201;-43
2023/05/20 03:48:20;;;;;;;1.87;1.20;;;20.40;62.80;;;;;;5064481;28;20569;-43
2023/05/20 03:50:50;;;;;;;3.53;1.30;;;20.40;62.80;;;;;;5068563;28;20186;-44
2023/05/20 03:53:21;;;;;;;2.87;1.43;;;20.40;62.80;;;;;;5062666;28;20228;-44
2023/05/20 03:55:53;;;;;;;2.57;1.50;;;20.40;62.70;;;;;;5061014;28;20186;-45
2023/05/20 03:58:27;;;;;;;2.27;1.33;;;20.40;62.70;;;;;;5055682;28;20245;-45
2023/05/20 04:00:59;;;;;;;1.80;1.10;;;20.40;62.70;;;;;;5080075;28;20712;-46
2023/05/20 04:03:30;;;;;;;1.33;1.23;;;20.40;62.60;;;;;;5065571;28;20627;-46
2023/05/20 04:06:03;;;;;;;2.03;1.43;;;20.40;62.70;;;;;;5063358;28;20248;-43
2023/05/20 04:08:36;;;;;;;1.07;0.97;;;20.40;62.70;;;;;;5073120;28;20359;-43
2023/05/20 04:11:06;;;;;;;1.77;1.30;;;20.30;62.60;;;;;;5051728;28;20294;-44
2023/05/20 04:13:36;;;;;;;2.50;1.17;;;20.30;63.20;;;;;;5058032;28;20213;-43
2023/05/20 04:16:07;;;;;;;1.50;1.40;;;20.40;62.50;;;;;;5066390;28;20189;-43
2023/05/20 04:18:39;;;;;;;2.23;1.33;;;20.30;62.40;;;;;;5079524;28;20208;-43
2023/05/20 04:21:10;;;;;;;1.83;1.20;;;20.30;62.40;;;;;;5067949;28;20205;-44
2023/05/20 04:23:42;;;;;;;1.40;1.30;;;20.30;62.50;;;;;;5073927;28;20229;-43
2023/05/20 04:26:13;;;;;;;1.80;1.00;;;20.30;62.40;;;;;;5068830;28;20744;-44
2023/05/20 04:28:47;;;;;;;1.87;1.13;;;20.30;62.40;;;;;;5087868;28;20255;-44
2023/05/20 04:31:19;;;;;;;1.57;1.20;;;20.30;62.40;;;;;;5069056;28;20249;-44
2023/05/20 04:33:52;;;;;;;2.63;1.20;;;20.30;62.50;;;;;;5066053;28;20602;-44
2023/05/20 04:36:21;;;;;;;1.70;1.37;;;20.30;62.40;;;;;;5046616;28;20213;-44
2023/05/20 04:38:50;;;;;;;1.40;1.30;;;20.20;62.40;;;;;;5068142;28;20235;-44
2023/05/20 04:41:22;;;;;;;1.27;1.13;;;20.20;62.40;;;;;;5069784;28;20194;-43
2023/05/20 04:44:07;;;;;;;1.67;1.20;;;20.20;62.40;;;;;;5056432;28;20666;-43
2023/05/20 04:46:36;;;;;;;1.10;1.00;;;20.20;62.40;;;;;;5067334;28;20605;-46
2023/05/20 04:49:04;;;;;;;3.53;1.50;;;20.20;62.20;;;;;;5068639;28;20627;-44
2023/05/20 04:51:35;;;;;;;2.17;1.27;;;20.20;62.20;;;;;;5071776;28;20651;-45
2023/05/20 04:54:07;;;;;;;3.10;1.30;;;20.20;62.10;;;;;;5076443;28;20201;-44
2023/05/20 04:56:39;;;;;;;2.73;1.30;;;20.20;62.00;;;;;;5074532;28;20294;-45
2023/05/20 04:59:10;;;;;;;2.90;1.30;;;20.20;62.00;;;;;;5068455;28;20643;-45
2023/05/20 05:01:41;;;;;;;1.50;1.17;;;20.20;62.00;;;;;;5046944;28;20200;-45
2023/05/20 05:04:12;;;;;;;3.03;1.40;;;20.20;62.00;;;;;;5072115;28;20281;-45
2023/05/20 05:06:41;;;;;;;2.07;1.33;;;20.20;61.80;;;;;;5075131;28;20190;-44
2023/05/20 05:09:12;;;;;;;2.40;1.63;;;20.20;61.80;;;;;;5064135;28;20194;-44
2023/05/20 05:11:39;;;;;;;1.63;1.23;;;20.20;61.80;;;;;;5053670;28;20273;-43
2023/05/20 05:14:11;;;;;;;4.77;1.50;;;20.20;61.70;;;;;;5053691;28;20679;-43
2023/05/20 05:16:42;;;;;;;2.00;1.17;;;20.20;61.70;;;;;;5049819;28;20271;-43
2023/05/20 05:19:14;;;;;;;2.13;1.40;;;20.20;61.70;;;;;;5060793;28;20194;-43
2023/05/20 05:21:44;;;;;;;2.10;1.40;;;20.10;61.90;;;;;;5061006;28;20206;-43
2023/05/20 05:24:17;;;;;;;2.67;1.47;;;20.10;61.60;;;;;;5062786;28;20232;-44
2023/05/20 05:26:47;;;;;;;1.50;1.40;;;20.10;61.40;;;;;;5071556;28;20643;-44
2023/05/20 05:29:18;;;;;;;4.53;1.43;;;20.10;61.60;;;;;;5068535;28;20213;-44
2023/05/20 05:31:48;;;;;;;2.43;1.17;;;20.10;61.40;;;;;;5051816;28;20201;-44
2023/05/20 05:34:19;;;;;;;2.20;1.37;;;20.10;61.50;;;;;;5052459;28;20643;-44
2023/05/20 05:36:48;;;;;;;2.57;1.53;;;20.10;61.60;;;;;;5059619;28;20205;-44
2023/05/20 05:39:21;;;;;;;1.40;1.27;;;20.10;61.60;;;;;;5070368;28;20295;-43
2023/05/20 05:41:50;;;;;;;1.53;1.33;;;20.10;61.50;;;;;;5070552;28;20243;-43
2023/05/20 05:44:21;;;;;;;3.27;1.63;;;20.10;61.70;;;;;;5069944;28;20228;-43
2023/05/20 05:46:53;;;;;;;1.57;1.47;;;20.10;61.60;;;;;;5069165;28;20234;-44
2023/05/20 05:49:22;;;;;;;3.00;1.40;;;20.10;61.40;;;;;;5071368;28;20650;-44
2023/05/20 05:51:52;;;;;;;1.43;1.27;;;20.10;61.50;;;;;;5071301;28;20251;-44
2023/05/20 05:54:21;;;;;;;3.90;1.40;;;20.10;61.60;;;;;;5070131;28;20267;-43
2023/05/20 05:56:55;;;;;;;2.03;1.63;;;20.10;61.60;;;;;;5081735;28;20557;-43
2023/05/20 05:59:25;;;;;;;1.53;1.30;;;20.00;61.40;;;;;;5080420;28;20261;-43
2023/05/20 06:01:55;;;;;;;1.77;1.33;;;20.00;61.40;;;;;;5076149;28;20209;-43
2023/05/20 06:04:23;;;;;;;1.73;1.30;;;20.00;61.60;;;;;;5071558;28;20217;-44
2023/05/20 06:06:52;;;;;;;1.60;1.50;;;20.00;61.50;;;;;;5066218;28;20684;-43
2023/05/20 06:09:36;;;;;;;2.27;1.40;;;20.10;61.60;;;;;;5068956;28;20186;-43
2023/05/20 06:12:06;;;;;;;1.90;1.30;;;20.00;61.50;;;;;;5065253;28;20205;-44
2023/05/20 06:14:40;;;;;;;1.60;1.40;;;20.10;61.60;;;;;;5065077;28;20216;-44
2023/05/20 06:17:11;;;;;;;1.47;1.30;;;20.10;61.60;;;;;;5066843;28;20213;-44
2023/05/20 06:19:41;;;;;;;1.93;1.47;;;20.00;61.60;;;;;;5063611;28;20226;-45
2023/05/20 06:22:11;;;;;;;2.03;1.27;;;20.00;61.70;;;;;;5061579;28;20232;-43
2023/05/20 06:24:42;;;;;;;2.23;1.77;;;20.10;62.30;;;;;;5072020;28;20569;-43
2023/05/20 06:27:14;;;;;;;4.30;1.80;;;20.00;61.60;;;;;;5062539;28;20209;-43
2023/05/20 06:29:46;;;;;;;2.00;1.20;;;20.10;61.60;;;;;;5065699;28;20580;-43
2023/05/20 06:32:20;;;;;;;1.30;1.13;;;20.00;61.60;;;;;;5045913;28;20182;-43
2023/05/20 06:34:52;;;;;;;2.50;1.63;;;20.10;61.60;;;;;;5060196;28;20207;-43
2023/05/20 06:37:25;;;;;;;1.80;1.17;;;20.10;61.60;;;;;;5065274;28;20198;-44
2023/05/20 06:39:54;;;;;;;3.17;1.50;;;20.00;61.50;;;;;;5042239;28;20199;-43
2023/05/20 06:42:25;;;;;;;2.10;1.43;;;20.10;61.50;;;;;;5060839;28;20532;-44
2023/05/20 06:44:54;;;;;;;4.03;1.97;;;20.10;61.40;;;;;;5054549;28;20214;-44
2023/05/20 06:47:24;;;;;;;6.13;2.40;;;20.10;61.90;;;;;;5052754;28;20209;-44
2023/05/20 06:49:53;;;;;;;7.83;3.30;;;20.20;62.20;;;;;;5065199;28;20194;-44
2023/05/20 06:52:23;;;;;;;3.27;2.13;;;20.20;62.70;;;;;;5071192;28;20251;-43
2023/05/20 06:54:55;;;;;;;5.30;2.50;;;20.20;62.00;;;;;;5070039;28;20240;-43
2023/05/20 06:57:25;;;;;;;3.87;2.90;;;20.20;61.70;;;;;;5064038;28;20202;-43
2023/05/20 06:59:54;;;;;;;5.00;2.93;;;20.20;61.70;;;;;;5067293;28;20216;-43
2023/05/20 07:02:25;;;;;;;9.43;3.13;;;20.20;61.50;;;;;;5066566;28;20200;-44
2023/05/20 07:04:54;;;;;;;8.77;3.13;;;20.30;61.40;;;;;;5061987;28;20670;-44
2023/05/20 07:07:29;;;;;;;4.37;2.97;;;20.20;61.40;;;;;;5059985;28;20202;-44
2023/05/20 07:09:59;;;;;;;7.80;2.83;;;20.20;61.20;;;;;;5067802;28;20197;-44
2023/05/20 07:12:41;;;;;;;6.30;2.77;;;20.20;61.10;;;;;;5054992;28;20214;-44
2023/05/20 07:15:10;;;;;;;6.13;2.80;;;20.20;61.00;;;;;;5060826;28;20219;-43
2023/05/20 07:17:39;;;;;;;5.33;2.80;;;20.20;61.00;;;;;;5053482;28;20204;-44
2023/05/20 07:20:09;;;;;;;6.70;2.87;;;20.20;61.00;;;;;;5054736;28;20191;-43
2023/05/20 07:22:40;;;;;;;7.10;2.90;;;20.20;61.00;;;;;;5061281;28;20211;-44
2023/05/20 07:25:12;;;;;;;7.00;2.87;;;20.20;61.00;;;;;;5055184;28;20232;-44
2023/05/20 07:27:40;;;;;;;4.77;2.70;;;20.20;61.00;;;;;;5051129;28;20206;-43
2023/05/20 07:30:12;;;;;;;7.30;2.47;;;20.20;61.00;;;;;;5064699;28;20241;-44
2023/05/20 07:32:41;;;;;;;5.80;2.73;;;20.20;60.80;;;;;;5051455;28;20224;-43
2023/05/20 07:35:18;;;;;;;4.70;2.37;;;20.20;60.70;;;;;;5054492;28;20228;-43
2023/05/20 07:37:49;;;;;;;4.40;2.43;;;20.20;60.60;;;;;;5058187;28;20214;-43
2023/05/20 07:40:21;;;;;;;3.67;2.00;;;20.20;60.80;;;;;;5050823;28;20198;-43
2023/05/20 07:42:52;;;;;;;5.33;2.83;;;20.20;60.70;;;;;;5034710;28;20687;-44
2023/05/20 07:45:23;;;;;;;4.47;2.37;;;20.20;60.50;;;;;;5054952;28;20290;-43
2023/05/20 07:47:52;;;;;;;2.77;2.17;;;20.20;60.40;;;;;;5050675;28;20202;-44
2023/05/20 07:50:21;;;;;;;2.63;2.13;;;20.20;60.40;;;;;;5046349;28;20210;-44
2023/05/20 07:52:53;;;;;;;3.93;2.20;;;20.20;60.40;;;;;;5064942;28;20197;-43
2023/05/20 07:55:24;;;;;;;2.93;2.20;;;20.20;60.40;;;;;;5052936;28;20208;-43
2023/05/20 07:57:54;;;;;;;2.60;2.20;;;20.20;60.30;;;;;;5071600;28;20186;-43
2023/05/20 08:00:23;;;;;;;3.77;2.10;;;20.20;60.30;;;;;;5030214;28;20221;-43
2023/05/20 08:02:53;;;;;;;2.93;1.80;;;20.20;60.30;;;;;;5049095;28;20546;-43
2023/05/20 08:05:25;;;;;;;3.30;2.13;;;20.20;60.30;;;;;;5062062;28;20213;-43
2023/05/20 08:07:56;;;;;;;4.17;2.03;;;20.30;60.20;;;;;;5066446;28;20198;-43
2023/05/20 08:10:27;;;;;;;3.53;2.27;;;20.20;60.10;;;;;;5068653;28;20212;-43
2023/05/20 08:12:58;;;;;;;4.53;1.90;;;20.30;60.10;;;;;;5046037;28;20206;-44
2023/05/20 08:15:30;;;;;;;5.10;2.23;;;20.30;60.10;;;;;;5048370;28;20528;-43
2023/05/20 08:18:03;;;;;;;2.60;2.20;;;20.30;60.20;;;;;;5047139;28;20218;-43
2023/05/20 08:20:33;;;;;;;2.80;2.00;;;20.30;60.10;;;;;;5063196;28;20671;-44
2023/05/20 08:23:03;;;;;;;4.00;2.00;;;20.30;60.10;;;;;;5052315;28;20201;-44
2023/05/20 08:25:32;;;;;;;3.53;1.97;;;20.30;60.70;;;;;;5066513;28;20249;-44
2023/05/20 08:28:06;;;;;;;4.47;2.30;;;20.30;60.00;;;;;;5067076;28;20198;-43
2023/05/20 08:30:36;;;;;;;2.73;2.20;;;20.30;59.90;;;;;;5075901;28;20555;-44
2023/05/20 08:33:22;;;;;;;3.27;2.00;;;20.30;59.80;;;;;;5068077;28;20213;-43
2023/05/20 08:35:52;;;;;;;3.77;1.83;;;20.30;59.80;;;;;;5066900;28;20202;-43
2023/05/20 08:38:25;;;;;;;2.60;2.07;;;20.30;59.80;;;;;;5064618;28;20221;-43
2023/05/20 08:40:56;;;;;;;3.27;2.17;;;20.30;59.80;;;;;;5070040;28;20397;-43
2023/05/20 08:43:31;;;;;;;3.80;2.10;;;20.30;59.80;;;;;;5066386;28;20193;-44
2023/05/20 08:46:05;;;;;;;2.47;1.77;;;20.30;59.80;;;;;;5066939;28;20197;-43
2023/05/20 08:48:43;;;;;;;2.90;1.93;;;20.30;59.80;;;;;;5049016;28;20232;-44
2023/05/20 08:51:12;;;;;;;2.00;1.80;;;20.30;59.80;;;;;;5068627;28;20235;-43
2023/05/20 08:53:42;;;;;;;1.90;1.70;;;20.30;59.80;;;;;;5070087;28;20651;-43
2023/05/20 08:56:20;;;;;;;4.70;1.90;;;20.30;59.70;;;;;;5046094;28;20194;-44
2023/05/20 08:58:53;;;;;;;2.70;1.80;;;20.40;59.70;;;;;;5068209;28;20258;-44
2023/05/20 09:01:26;;;;;;;4.17;2.03;;;20.40;59.70;;;;;;5066199;28;20208;-43
2023/05/20 09:03:57;;;;;;;2.23;1.90;;;20.40;59.70;;;;;;5034851;28;20220;-43
2023/05/20 09:06:25;;;;;;;2.63;1.67;;;20.40;59.70;;;;;;5054767;28;20197;-44
2023/05/20 09:08:54;;;;;;;2.33;1.70;;;20.40;59.70;;;;;;5055352;28;20191;-44
2023/05/20 09:11:41;;;;;;;2.20;1.73;;;20.40;59.70;;;;;;5056264;28;20191;-44
2023/05/20 09:14:11;;;;;;;2.13;1.37;;;20.40;59.70;;;;;;5061126;28;20752;-43
2023/05/20 09:16:42;;;;;;;2.07;1.63;;;20.40;59.70;;;;;;5048304;28;20742;-43
2023/05/20 09:19:13;;;;;;;2.40;1.80;;;20.40;59.60;;;;;;5053480;28;20206;-43
2023/05/20 09:21:47;;;;;;;2.50;1.70;;;20.40;59.60;;;;;;5057558;28;20193;-43
2023/05/20 09:24:21;;;;;;;1.77;1.53;;;20.40;59.60;;;;;;5067071;28;20277;-44
2023/05/20 09:26:52;;;;;;;2.20;1.70;;;20.40;59.60;;;;;;5041260;28;20202;-44
2023/05/20 09:29:22;;;;;;;3.73;2.00;;;20.50;59.70;;;;;;5059888;28;20205;-44
2023/05/20 09:31:52;;;;;;;1.83;1.67;;;20.50;59.70;;;;;;5052009;28;20205;-44
2023/05/20 09:34:26;;;;;;;2.10;1.63;;;20.50;59.80;;;;;;5069793;28;20203;-44
2023/05/20 09:36:58;;;;;;;1.53;1.43;;;20.40;59.70;;;;;;5056539;28;20225;-43
2023/05/20 09:39:32;;;;;;;1.87;1.50;;;20.40;59.70;;;;;;5053414;28;20209;-43
2023/05/20 09:42:25;;;;;;;2.43;1.70;;;20.50;59.90;;;;;;5052554;28;20205;-44
2023/05/20 09:44:56;;;;;;;1.83;1.60;;;20.50;59.80;;;;;;5067055;28;20753;-44
2023/05/20 09:47:29;;;;;;;2.17;1.60;;;20.40;59.80;;;;;;5069883;28;20699;-44
2023/05/20 09:50:23;;;;;;;2.17;1.93;;;20.40;59.90;;;;;;5053163;28;20217;-44
2023/05/20 09:52:55;;;;;;;1.70;1.60;;;20.50;59.80;;;;;;5060358;28;20663;-43
2023/05/20 09:55:26;;;;;;;2.50;1.60;;;20.50;59.80;;;;;;5061766;28;20202;-43
2023/05/20 09:58:02;;;;;;;1.73;1.63;;;20.50;59.70;;;;;;5059744;28;20259;-44
2023/05/20 10:00:33;;;;;;;2.00;1.80;;;20.50;59.90;;;;;;5072830;28;20221;-44
2023/05/20 10:03:04;;;;;;;3.30;2.00;;;20.50;59.80;;;;;;5054851;28;20332;-43
2023/05/20 10:05:43;;;;;;;1.93;1.40;;;20.50;59.80;;;;;;5056193;28;20233;-43
2023/05/20 10:08:41;;;;;;;2.27;1.77;;;20.50;59.70;;;;;;5044943;28;20201;-44
2023/05/20 10:11:29;;;;;;;1.70;1.53;;;20.50;59.80;;;;;;5069463;28;20198;-44
2023/05/20 10:14:19;;;;;;;2.90;1.73;;;20.50;59.90;;;;;;5070378;28;20209;-44
2023/05/20 10:17:00;;;;;;;3.03;1.70;;;20.50;59.80;;;;;;5067585;28;20202;-43
2023/05/20 10:19:33;;;;;;;1.70;1.60;;;20.50;59.80;;;;;;5083692;28;20201;-44
2023/05/20 10:22:13;;;;;;;2.63;1.53;;;20.50;59.70;;;;;;5046712;28;20228;-44
2023/05/20 10:25:13;;;;;;;1.90;1.70;;;20.60;59.70;;;;;;5068022;28;20237;-44
2023/05/20 10:27:46;;;;;;;4.67;1.83;;;20.60;59.80;;;;;;5086631;28;20201;-44
2023/05/20 10:30:19;;;;;;;4.30;1.70;;;20.60;59.80;;;;;;5065061;28;20237;-44
2023/05/20 10:32:55;;;;;;;2.93;1.83;;;20.60;59.90;;;;;;5049872;28;20213;-43
2023/05/20 10:35:47;;;;;;;1.70;1.60;;;20.60;59.70;;;;;;5063201;28;20273;-43
2023/05/20 10:38:28;;;;;;;3.90;1.70;;;20.60;59.70;;;;;;5056036;28;20283;-43
2023/05/20 10:41:20;;;;;;;1.67;1.57;;;20.60;59.60;;;;;;5069658;28;20186;-44
2023/05/20 10:44:09;;;;;;;1.80;1.53;;;20.60;59.60;;;;;;5073647;28;20190;-44
2023/05/20 10:46:41;;;;;;;2.57;1.90;;;20.60;59.60;;;;;;5074496;28;20806;-44
2023/05/20 10:49:56;;;;;;;2.30;1.73;;;20.70;59.60;;;;;;5071883;28;20757;-44
2023/05/20 10:52:25;;;;;;;2.23;1.47;;;20.70;59.60;;;;;;5070151;28;20198;-44
2023/05/20 10:54:57;;;;;;;2.13;1.77;;;20.70;59.70;;;;;;5074643;28;20197;-44
2023/05/20 10:57:28;;;;;;;2.37;1.80;;;20.70;59.70;;;;;;5078615;28;20208;-43
2023/05/20 11:00:03;;;;;;;1.77;1.67;;;20.70;59.60;;;;;;5078563;28;20297;-43
2023/05/20 11:02:40;;;;;;;1.77;1.67;;;20.70;59.50;;;;;;5067609;28;20289;-44
2023/05/20 11:05:12;;;;;;;2.17;1.97;;;20.70;59.50;;;;;;5070305;28;20217;-44
2023/05/20 11:07:42;;;;;;;1.80;1.70;;;20.70;59.50;;;;;;5058434;28;20205;-44
2023/05/20 11:10:13;;;;;;;1.70;1.60;;;20.80;59.50;;;;;;5067629;28;20197;-44
2023/05/20 11:12:43;;;;;;;1.60;1.50;;;20.80;59.40;;;;;;5053912;28;20215;-45
2023/05/20 11:15:14;;;;;;;1.73;1.63;;;20.80;59.50;;;;;;5057778;28;20194;-44
2023/05/20 11:18:00;;;;;;;2.87;1.90;;;20.80;59.20;;;;;;5054277;28;20218;-44
2023/05/20 11:20:38;;;;;;;2.33;1.73;;;20.80;59.30;;;;;;5057115;28;20233;-44
2023/05/20 11:23:13;;;;;;;2.10;1.67;;;20.90;59.30;;;;;;5064354;28;20205;-44
2023/05/20 11:25:41;;;;;;;1.83;1.60;;;20.80;59.20;;;;;;5066397;28;20233;-44
2023/05/20 11:28:14;;;;;;;1.90;1.60;;;20.90;59.40;;;;;;5052482;28;20190;-44
2023/05/20 11:30:47;;;;;;;2.33;1.73;;;20.90;59.40;;;;;;5066079;28;20230;-43
2023/05/20 11:33:29;;;;;;;2.83;2.03;;;20.90;59.50;;;;;;5049811;28;20280;-43
2023/05/20 11:36:01;;;;;;;4.37;1.57;;;21.00;59.50;;;;;;5050668;28;20195;-44
2023/05/20 11:38:33;;;;;;;1.80;1.70;;;21.00;59.40;;;;;;5057392;28;20302;-44
2023/05/20 11:41:03;;;;;;;1.60;1.47;;;20.90;59.40;;;;;;5064013;28;20225;-44
2023/05/20 11:43:54;;;;;;;4.17;1.70;;;21.00;59.30;;;;;;5065122;28;20225;-44
2023/05/20 11:46:28;;;;;;;3.43;1.70;;;21.00;59.30;;;;;;5060676;28;20240;-44
2023/05/20 11:49:06;;;;;;;1.67;1.50;;;21.00;59.40;;;;;;5056432;28;20253;-45
2023/05/20 11:51:34;;;;;;;1.90;1.80;;;21.00;59.40;;;;;;5042959;28;20204;-44
2023/05/20 11:54:08;;;;;;;2.83;1.50;;;21.00;59.40;;;;;;5058978;28;20198;-44
2023/05/20 11:56:40;;;;;;;3.43;1.90;;;21.10;59.50;;;;;;5057421;28;20205;-44
2023/05/20 11:59:10;;;;;;;2.10;1.90;;;21.10;59.60;;;;;;5040536;28;20210;-44
2023/05/20 12:01:43;;;;;;;3.10;1.80;;;21.10;59.50;;;;;;5062193;28;20214;-45
2023/05/20 12:04:15;;;;;;;2.30;1.70;;;21.10;59.40;;;;;;5041139;28;20209;-45
2023/05/20 12:06:46;;;;;;;2.70;1.57;;;21.10;59.40;;;;;;5063684;28;20202;-44
2023/05/20 12:09:17;;;;;;;2.13;1.83;;;21.20;59.60;;;;;;5059045;28;20749;-44
2023/05/20 12:11:45;;;;;;;1.90;1.40;;;21.20;59.60;;;;;;5066950;28;20182;-45
2023/05/20 12:14:16;;;;;;;1.70;1.50;;;21.20;59.60;;;;;;5077214;28;20212;-45
2023/05/20 12:16:46;;;;;;;1.97;1.70;;;21.30;59.60;;;;;;5080191;28;20214;-45
2023/05/20 12:19:17;;;;;;;2.30;1.97;;;21.30;59.60;;;;;;5076588;28;20272;-44
2023/05/20 12:21:47;;;;;;;2.70;1.70;;;21.20;59.60;;;;;;5069596;28;20197;-44
2023/05/20 12:24:19;;;;;;;3.83;1.93;;;21.30;59.60;;;;;;5063924;28;20659;-43
2023/05/20 12:26:47;;;;;;;1.43;1.33;;;21.30;59.70;;;;;;5068777;28;20279;-44
2023/05/20 12:29:19;;;;;;;2.43;1.80;;;21.30;59.50;;;;;;5070561;28;20193;-44
2023/05/20 12:31:55;;;;;;;2.30;1.97;;;21.30;59.50;;;;;;5067643;28;20258;-44
2023/05/20 12:34:26;;;;;;;1.97;1.77;;;21.30;59.60;;;;;;5067221;28;20200;-44
2023/05/20 12:36:54;;;;;;;2.00;1.80;;;21.30;59.60;;;;;;5067405;28;20206;-44
2023/05/20 12:39:26;;;;;;;1.60;1.50;;;21.30;60.20;;;;;;5070199;28;20502;-44
2023/05/20 12:41:56;;;;;;;2.97;1.70;;;21.40;59.70;;;;;;5069462;28;20576;-44
2023/05/20 12:44:28;;;;;;;2.20;1.67;;;21.40;59.70;;;;;;5077001;28;20646;-44
2023/05/20 12:46:58;;;;;;;1.90;1.80;;;21.40;59.80;;;;;;5051674;28;20198;-45
2023/05/20 12:49:28;;;;;;;1.80;1.53;;;21.40;59.80;;;;;;5048306;28;20206;-45
2023/05/20 12:51:56;;;;;;;1.70;1.60;;;21.40;59.80;;;;;;5045715;28;20651;-44
2023/05/20 12:54:32;;;;;;;2.10;1.90;;;21.50;59.70;;;;;;5071953;28;20625;-44
2023/05/20 12:57:02;;;;;;;3.97;1.90;;;21.50;59.80;;;;;;5070952;28;20581;-44
2023/05/20 12:59:31;;;;;;;3.40;2.30;;;21.50;59.70;;;;;;5052381;28;20201;-44
2023/05/20 13:02:13;;;;;;;1.73;1.63;;;21.50;59.70;;;;;;5064212;28;20284;-43
2023/05/20 13:04:45;;;;;;;1.97;1.63;;;21.50;59.70;;;;;;5068404;28;20181;-44
2023/05/20 13:07:16;;;;;;;1.90;1.80;;;21.50;59.80;;;;;;5059248;28;20194;-44
2023/05/20 13:09:46;;;;;;;1.80;1.67;;;21.60;60.30;;;;;;5046887;28;20224;-45
2023/05/20 13:12:20;;;;;;;2.13;1.47;;;21.60;60.00;;;;;;5064180;28;20197;-44
2023/05/20 13:14:48;;;;;;;1.70;1.60;;;21.60;59.90;;;;;;5059065;28;20251;-44
2023/05/20 13:17:20;;;;;;;1.60;1.50;;;21.60;59.90;;;;;;5068772;28;20201;-44